createdAt,value
2022-11-28T00:01:42.906Z,101115.25
2022-11-28T00:04:10.759Z,101124.28
2022-11-28T00:06:40.139Z,101117.31
2022-11-28T00:09:08.398Z,101107.88
2022-11-28T00:11:35.897Z,101103.13
2022-11-28T00:14:03.427Z,101094.72
2022-11-28T00:16:30.940Z,101100.28
2022-11-28T00:19:00.887Z,101095.56
2022-11-28T00:21:28.427Z,101108.25
2022-11-28T00:23:55.883Z,101097.19
2022-11-28T00:26:25.622Z,101098.84
2022-11-28T00:28:53.557Z,101090.63
2022-11-28T00:31:23.084Z,101088.78
2022-11-28T00:33:51.015Z,101092.25
2022-11-28T00:36:20.699Z,101093.09
2022-11-28T00:38:48.325Z,101076.25
2022-11-28T00:41:17.012Z,101080.97
2022-11-28T00:43:46.050Z,101069.69
2022-11-28T00:46:14.875Z,101070.31
2022-11-28T00:48:42.527Z,101085.09
2022-11-28T00:51:12.013Z,101080.97
2022-11-28T00:53:42.435Z,101086.50
2022-11-28T00:56:11.701Z,101089.59
2022-11-28T00:58:39.938Z,101060.44
2022-11-28T01:01:11.563Z,101061.06
2022-11-28T01:03:39.603Z,101052.00
2022-11-28T01:06:07.871Z,101043.81
2022-11-28T01:08:35.616Z,101043.00
2022-11-28T01:11:05.034Z,101049.75
2022-11-28T01:13:32.571Z,101057.72
2022-11-28T01:16:00.195Z,101041.34
2022-11-28T01:18:27.808Z,101029.84
2022-11-28T01:20:55.318Z,101030.47
2022-11-28T01:23:22.850Z,101014.03
2022-11-28T01:25:50.353Z,101025.50
2022-11-28T01:28:19.164Z,101008.06
2022-11-28T01:30:46.667Z,101015.28
2022-11-28T01:33:14.148Z,101004.38
2022-11-28T01:35:41.672Z,101008.28
2022-11-28T01:38:09.198Z,101029.00
2022-11-28T01:40:36.683Z,101003.56
2022-11-28T01:43:04.199Z,101003.56
2022-11-28T01:45:33.888Z,100996.38
2022-11-28T01:48:04.128Z,100981.81
2022-11-28T01:50:32.788Z,100992.72
2022-11-28T01:53:03.827Z,100982.66
2022-11-28T01:55:33.679Z,100982.03
2022-11-28T01:58:01.336Z,100968.91
2022-11-28T02:00:28.879Z,100939.56
2022-11-28T02:03:05.531Z,100935.47
2022-11-28T02:05:33.551Z,100945.09
2022-11-28T02:08:01.105Z,100935.88
2022-11-28T02:10:33.220Z,100945.94
2022-11-28T02:13:12.037Z,100941.19
2022-11-28T02:15:52.520Z,100926.84
2022-11-28T02:18:36.557Z,100927.66
2022-11-28T02:21:18.255Z,100928.91
2022-11-28T02:24:04.183Z,100920.72
2022-11-28T02:27:09.711Z,100915.78
2022-11-28T02:30:12.626Z,100912.28
2022-11-28T02:32:56.104Z,100914.34
2022-11-28T02:35:27.979Z,100899.78
2022-11-28T02:38:05.148Z,100893.59
2022-11-28T02:40:38.495Z,100885.41
2022-11-28T02:43:11.162Z,100878.03
2022-11-28T02:45:42.874Z,100876.16
2022-11-28T02:48:15.119Z,100886.44
2022-11-28T02:50:47.035Z,100889.09
2022-11-28T02:53:16.586Z,100882.94
2022-11-28T02:55:44.706Z,100885.84
2022-11-28T02:58:12.841Z,100889.31
2022-11-28T03:00:43.431Z,100890.34
2022-11-28T03:03:39.421Z,100872.91
2022-11-28T03:06:12.521Z,100870.25
2022-11-28T03:08:53.533Z,100879.06
2022-11-28T03:11:24.434Z,100869.41
2022-11-28T03:13:55.537Z,100877.63
2022-11-28T03:16:28.045Z,100866.53
2022-11-28T03:19:04.576Z,100866.13
2022-11-28T03:21:38.794Z,100863.91
2022-11-28T03:24:11.903Z,100852.59
2022-11-28T03:26:46.136Z,100841.13
2022-11-28T03:29:16.398Z,100843.81
2022-11-28T03:31:48.302Z,100820.41
2022-11-28T03:34:20.953Z,100828.22
2022-11-28T03:36:50.528Z,100824.91
2022-11-28T03:39:21.538Z,100837.66
2022-11-28T03:41:52.249Z,100835.97
2022-11-28T03:44:23.534Z,100825.53
2022-11-28T03:46:51.538Z,100836.81
2022-11-28T03:49:23.418Z,100853.44
2022-11-28T03:51:54.620Z,100852.22
2022-11-28T03:54:25.880Z,100856.72
2022-11-28T03:56:57.823Z,100856.72
2022-11-28T03:59:27.606Z,100855.66
2022-11-28T04:02:01.638Z,100851.56
2022-11-28T04:04:34.472Z,100842.38
2022-11-28T04:07:06.567Z,100850.97
2022-11-28T04:09:39.085Z,100857.13
2022-11-28T04:12:11.587Z,100839.50
2022-11-28T04:14:42.309Z,100859.59
2022-11-28T04:17:13.267Z,100856.28
2022-11-28T04:19:44.930Z,100857.94
2022-11-28T04:22:16.298Z,100852.41
2022-11-28T04:24:48.098Z,100855.91
2022-11-28T04:27:18.871Z,100849.13
2022-11-28T04:29:48.943Z,100851.56
2022-11-28T04:32:18.996Z,100839.06
2022-11-28T04:34:51.827Z,100845.84
2022-11-28T04:37:20.097Z,100839.06
2022-11-28T04:39:48.918Z,100822.69
2022-11-28T04:42:18.822Z,100820.22
2022-11-28T04:44:48.679Z,100822.47
2022-11-28T04:47:17.027Z,100819.38
2022-11-28T04:49:46.231Z,100805.84
2022-11-28T04:52:19.988Z,100807.53
2022-11-28T04:54:53.815Z,100794.78
2022-11-28T04:57:25.414Z,100801.34
2022-11-28T04:59:56.357Z,100801.31
2022-11-28T05:02:26.294Z,100793.56
2022-11-28T05:04:55.569Z,100810.78
2022-11-28T05:07:25.444Z,100825.56
2022-11-28T05:09:53.111Z,100833.53
2022-11-28T05:12:20.622Z,100842.19
2022-11-28T05:14:48.124Z,100839.50
2022-11-28T05:17:15.599Z,100851.41
2022-11-28T05:19:43.075Z,100883.97
2022-11-28T05:22:10.542Z,100891.16
2022-11-28T05:24:39.418Z,100898.13
2022-11-28T05:27:07.599Z,100891.56
2022-11-28T05:29:35.167Z,100887.06
2022-11-28T05:32:02.682Z,100881.31
2022-11-28T05:34:31.060Z,100895.25
2022-11-28T05:36:58.563Z,100898.56
2022-11-28T05:39:26.864Z,100897.53
2022-11-28T05:41:56.975Z,100888.28
2022-11-28T05:44:27.011Z,100888.28
2022-11-28T05:46:55.020Z,100893.00
2022-11-28T05:49:23.755Z,100890.94
2022-11-28T05:51:51.236Z,100875.16
2022-11-28T05:54:18.747Z,100841.16
2022-11-28T05:56:46.288Z,100846.88
2022-11-28T05:59:15.187Z,100842.78
2022-11-28T06:01:42.740Z,100845.84
2022-11-28T06:04:10.374Z,100849.53
2022-11-28T06:06:38.451Z,100835.59
2022-11-28T06:09:06.731Z,100837.84
2022-11-28T06:11:35.210Z,100835.38
2022-11-28T06:14:03.184Z,100838.69
2022-11-28T06:16:32.530Z,100831.09
2022-11-28T06:21:56.067Z,100838.63
2022-11-28T06:24:23.931Z,100837.59
2022-11-28T06:26:51.370Z,100838.84
2022-11-28T06:29:18.852Z,100840.06
2022-11-28T06:31:47.689Z,100840.13
2022-11-28T06:34:15.202Z,100841.31
2022-11-28T06:36:42.637Z,100845.66
2022-11-28T06:39:12.863Z,100845.03
2022-11-28T06:41:40.346Z,100845.66
2022-11-28T06:44:08.110Z,100838.88
2022-11-28T06:46:35.542Z,100840.91
2022-11-28T06:49:04.400Z,100845.66
2022-11-28T06:51:31.876Z,100844.22
2022-11-28T06:53:59.367Z,100847.88
2022-11-28T06:56:27.042Z,100847.69
2022-11-28T06:58:55.551Z,100854.03
2022-11-28T07:01:25.797Z,100854.25
2022-11-28T07:03:54.325Z,100844.59
2022-11-28T07:06:24.100Z,100846.28
2022-11-28T07:08:52.037Z,100840.75
2022-11-28T07:11:21.168Z,100839.50
2022-11-28T07:13:49.951Z,100847.47
2022-11-28T07:16:20.144Z,100844.59
2022-11-28T07:18:47.710Z,100846.06
2022-11-28T07:21:15.499Z,100852.00
2022-11-28T07:23:44.963Z,100855.69
2022-11-28T07:26:13.874Z,100847.91
2022-11-28T07:28:41.874Z,100856.50
2022-11-28T07:31:11.488Z,100849.72
2022-11-28T07:33:39.422Z,100854.25
2022-11-28T07:36:12.894Z,100844.84
2022-11-28T07:38:40.398Z,100846.88
2022-11-28T07:41:10.662Z,100853.44
2022-11-28T07:43:38.558Z,100854.66
2022-11-28T07:46:07.819Z,100851.81
2022-11-28T07:48:35.541Z,100857.53
2022-11-28T07:51:06.990Z,100862.06
2022-11-28T07:53:34.454Z,100850.16
2022-11-28T07:56:03.481Z,100848.94
2022-11-28T07:58:34.427Z,100850.56
2022-11-28T08:01:02.022Z,100838.69
2022-11-28T08:03:29.512Z,100843.19
2022-11-28T08:06:02.950Z,100840.50
2022-11-28T08:08:30.886Z,100839.72
2022-11-28T08:10:58.936Z,100849.31
2022-11-28T08:13:26.726Z,100853.63
2022-11-28T08:15:55.791Z,100851.81
2022-11-28T08:18:23.506Z,100853.84
2022-11-28T08:20:51.427Z,100858.38
2022-11-28T08:23:18.912Z,100852.19
2022-11-28T08:25:46.363Z,100864.50
2022-11-28T08:28:14.044Z,100857.94
2022-11-28T08:30:41.559Z,100864.69
2022-11-28T08:33:10.406Z,100860.00
2022-11-28T08:35:40.234Z,100859.38
2022-11-28T08:38:07.690Z,100864.69
2022-11-28T08:40:35.149Z,100863.28
2022-11-28T08:43:02.583Z,100871.06
2022-11-28T08:45:30.120Z,100880.50
2022-11-28T08:47:59.575Z,100877.81
2022-11-28T08:50:28.467Z,100879.91
2022-11-28T08:52:56.125Z,100885.03
2022-11-28T08:55:31.717Z,100880.69
2022-11-28T08:57:59.863Z,100880.28
2022-11-28T09:00:27.530Z,100887.88
2022-11-28T09:02:54.991Z,100891.38
2022-11-28T09:05:23.230Z,100878.03
2022-11-28T09:07:52.035Z,100881.94
2022-11-28T09:10:19.554Z,100888.50
2022-11-28T09:12:46.983Z,100882.97
2022-11-28T09:15:14.626Z,100869.84
2022-11-28T09:17:42.082Z,100889.09
2022-11-28T09:20:10.743Z,100882.94
2022-11-28T09:22:38.204Z,100872.69
2022-11-28T09:25:08.330Z,100870.63
2022-11-28T09:27:35.779Z,100884.59
2022-11-28T09:30:03.366Z,100867.78
2022-11-28T09:32:30.931Z,100880.69
2022-11-28T09:34:58.439Z,100872.91
2022-11-28T09:37:25.971Z,100873.69
2022-11-28T09:40:11.984Z,100876.38
2022-11-28T09:42:44.030Z,100875.38
2022-11-28T09:45:13.975Z,100869.59
2022-11-28T09:47:44.375Z,100874.72
2022-11-28T09:50:15.348Z,100882.53
2022-11-28T09:52:48.172Z,100884.97
2022-11-28T09:55:19.838Z,100877.19
2022-11-28T09:57:50.142Z,100885.41
2022-11-28T10:00:20.158Z,100873.09
2022-11-28T10:03:02.531Z,100891.13
2022-11-28T10:05:36.370Z,100885.00
2022-11-28T10:08:19.122Z,100881.91
2022-11-28T10:10:53.684Z,100882.75
2022-11-28T10:13:41.170Z,100878.22
2022-11-28T10:16:22.061Z,100877.19
2022-11-28T10:18:52.045Z,100876.75
2022-11-28T10:21:25.855Z,100875.75
2022-11-28T10:23:55.991Z,100877.78
2022-11-28T10:26:29.721Z,100873.91
2022-11-28T10:29:00.896Z,100876.81
2022-11-28T10:31:32.558Z,100877.59
2022-11-28T10:34:03.395Z,100879.47
2022-11-28T10:36:35.502Z,100873.50
2022-11-28T10:39:11.168Z,100870.84
2022-11-28T10:41:42.430Z,100862.03
2022-11-28T10:44:21.333Z,100859.94
2022-11-28T10:46:56.687Z,100850.34
2022-11-28T10:49:34.193Z,100860.34
2022-11-28T10:52:08.084Z,100861.38
2022-11-28T10:54:49.498Z,100861.59
2022-11-28T10:57:22.737Z,100863.66
2022-11-28T11:00:00.630Z,100869.00
2022-11-28T11:02:34.538Z,100863.59
2022-11-28T11:05:02.155Z,100859.31
2022-11-28T11:07:31.486Z,100863.66
2022-11-28T11:10:02.876Z,100863.63
2022-11-28T11:12:32.683Z,100854.38
2022-11-28T11:15:16.186Z,100854.38
2022-11-28T11:17:43.791Z,100857.69
2022-11-28T11:20:36.229Z,100855.03
2022-11-28T11:23:13.690Z,100857.91
2022-11-28T11:25:48.087Z,100852.56
2022-11-28T11:28:28.043Z,100857.69
2022-11-28T11:31:01.571Z,100855.41
2022-11-28T11:33:34.786Z,100850.94
2022-11-28T11:36:04.610Z,100853.59
2022-11-28T11:38:37.970Z,100859.56
2022-11-28T11:41:21.563Z,100852.16
2022-11-28T11:43:49.082Z,100851.94
2022-11-28T11:46:18.052Z,100852.16
2022-11-28T11:48:47.243Z,100850.50
2022-11-28T11:51:25.755Z,100851.50
2022-11-28T11:54:04.133Z,100848.88
2022-11-28T11:56:33.590Z,100842.31
2022-11-28T11:59:02.390Z,100845.38
2022-11-28T12:01:31.640Z,100838.00
2022-11-28T12:04:08.478Z,100830.38
2022-11-28T12:06:44.751Z,100833.41
2022-11-28T12:09:17.236Z,100845.94
2022-11-28T12:11:48.833Z,100854.56
2022-11-28T12:14:27.466Z,100842.72
2022-11-28T12:17:25.743Z,100850.72
2022-11-28T12:20:03.743Z,100839.22
2022-11-28T12:22:36.774Z,100841.28
2022-11-28T12:25:11.571Z,100840.25
2022-11-28T12:27:54.379Z,100843.13
2022-11-28T12:30:27.446Z,100839.41
2022-11-28T12:33:05.399Z,100849.09
2022-11-28T12:35:39.075Z,100853.00
2022-11-28T12:38:13.346Z,100845.31
2022-11-28T12:40:52.253Z,100844.94
2022-11-28T12:43:31.215Z,100839.03
2022-11-28T12:46:06.178Z,100826.28
2022-11-28T12:48:45.375Z,100833.28
2022-11-28T12:51:23.579Z,100836.94
2022-11-28T12:54:01.745Z,100835.94
2022-11-28T12:56:38.472Z,100844.94
2022-11-28T12:59:11.508Z,100836.16
2022-11-28T13:01:48.770Z,100840.44
2022-11-28T13:04:30.321Z,100835.31
2022-11-28T13:07:04.615Z,100838.81
2022-11-28T13:09:34.208Z,100837.38
2022-11-28T13:12:12.980Z,100835.31
2022-11-28T13:14:47.517Z,100832.84
2022-11-28T13:17:24.626Z,100836.94
2022-11-28T13:20:01.453Z,100834.53
2022-11-28T13:22:34.154Z,100835.09
2022-11-28T13:25:04.963Z,100833.66
2022-11-28T13:27:37.411Z,100826.03
2022-11-28T13:30:14.903Z,100829.75
2022-11-28T13:32:47.112Z,100840.25
2022-11-28T13:35:17.513Z,100841.69
2022-11-28T13:40:41.185Z,100838.63
2022-11-28T13:43:17.535Z,100830.38
2022-11-28T13:45:46.387Z,100836.56
2022-11-28T13:51:45.100Z,100845.59
2022-11-28T13:54:44.269Z,100840.50
2022-11-28T13:57:21.456Z,100850.72
2022-11-28T13:59:52.037Z,100841.91
2022-11-28T14:02:23.486Z,100837.97
2022-11-28T14:04:51.151Z,100849.88
2022-11-28T14:07:31.733Z,100848.44
2022-11-28T14:10:13.543Z,100842.31
2022-11-28T14:12:46.471Z,100848.25
2022-11-28T14:15:23.998Z,100853.38
2022-11-28T14:18:18.899Z,100859.72
2022-11-28T14:20:56.654Z,100861.78
2022-11-28T14:23:30.746Z,100848.63
2022-11-28T14:25:58.430Z,100848.25
2022-11-28T14:28:27.325Z,100850.06
2022-11-28T14:31:02.772Z,100848.44
2022-11-28T14:33:35.684Z,100859.91
2022-11-28T14:36:23.399Z,100852.72
2022-11-28T14:39:35.033Z,100851.13
2022-11-28T14:45:44.697Z,100853.59
2022-11-28T14:48:18.700Z,100846.44
2022-11-28T14:50:48.353Z,100848.28
2022-11-28T14:53:52.421Z,100847.66
2022-11-28T14:56:28.995Z,100840.31
2022-11-28T14:58:59.332Z,100838.63
2022-11-28T15:01:37.707Z,100840.69
2022-11-28T15:04:29.990Z,100837.59
2022-11-28T15:06:59.482Z,100854.44
2022-11-28T15:09:30.567Z,100858.34
2022-11-28T15:12:11.325Z,100863.66
2022-11-28T15:14:38.975Z,100865.09
2022-11-28T15:17:07.923Z,100849.69
2022-11-28T15:19:39.496Z,100867.72
2022-11-28T15:22:06.970Z,100866.06
2022-11-28T15:24:35.802Z,100869.78
2022-11-28T15:27:23.739Z,100872.06
2022-11-28T15:29:55.763Z,100881.25
2022-11-28T15:32:23.726Z,100873.03
2022-11-28T15:34:58.043Z,100866.66
2022-11-28T15:37:29.104Z,100871.66
2022-11-28T15:39:56.699Z,100863.88
2022-11-28T15:42:29.674Z,100873.28
2022-11-28T15:44:59.305Z,100868.34
2022-11-28T15:47:27.822Z,100866.72
2022-11-28T15:50:03.050Z,100873.50
2022-11-28T15:52:31.857Z,100881.91
2022-11-28T15:54:59.382Z,100882.13
2022-11-28T15:57:32.178Z,100889.91
2022-11-28T15:59:59.675Z,100886.25
2022-11-28T16:02:32.676Z,100895.03
2022-11-28T16:05:05.799Z,100892.16
2022-11-28T16:07:37.828Z,100885.41
2022-11-28T16:10:17.135Z,100891.53
2022-11-28T16:12:46.038Z,100889.50
2022-11-28T16:15:18.246Z,100887.84
2022-11-28T16:17:45.819Z,100888.28
2022-11-28T16:20:21.819Z,100886.63
2022-11-28T16:22:49.463Z,100888.06
2022-11-28T16:25:22.917Z,100875.97
2022-11-28T16:27:53.193Z,100888.06
2022-11-28T16:30:29.827Z,100890.94
2022-11-28T16:32:58.058Z,100892.38
2022-11-28T16:35:27.751Z,100888.69
2022-11-28T16:38:05.188Z,100886.25
2022-11-28T16:40:33.051Z,100884.59
2022-11-28T16:43:04.819Z,100890.13
2022-11-28T16:45:33.502Z,100892.81
2022-11-28T16:48:08.584Z,100886.44
2022-11-28T16:50:36.457Z,100892.16
2022-11-28T16:53:05.096Z,100896.69
2022-11-28T16:55:44.129Z,100883.38
2022-11-28T16:58:15.770Z,100888.25
2022-11-28T17:00:45.388Z,100882.34
2022-11-28T17:03:41.701Z,100890.09
2022-11-28T17:06:15.982Z,100885.19
2022-11-28T17:08:43.426Z,100886.25
2022-11-28T17:11:11.062Z,100889.72
2022-11-28T17:13:39.851Z,100888.91
2022-11-28T17:16:09.685Z,100904.69
2022-11-28T17:18:37.270Z,100905.69
2022-11-28T17:21:04.779Z,100908.16
2022-11-28T17:23:32.271Z,100907.13
2022-11-28T17:25:59.715Z,100907.38
2022-11-28T17:28:29.232Z,100913.31
2022-11-28T17:30:58.156Z,100909.19
2022-11-28T17:33:25.647Z,100919.47
2022-11-28T17:35:54.278Z,100923.56
2022-11-28T17:38:21.739Z,100920.06
2022-11-28T17:40:49.259Z,100912.66
2022-11-28T17:43:18.442Z,100913.31
2022-11-28T17:45:47.254Z,100918.84
2022-11-28T17:48:17.839Z,100924.38
2022-11-28T17:50:46.463Z,100914.31
2022-11-28T17:53:15.051Z,100915.78
2022-11-28T17:55:43.432Z,100916.81
2022-11-28T17:58:16.730Z,100910.00
2022-11-28T18:00:44.332Z,100917.22
2022-11-28T18:03:12.018Z,100909.78
2022-11-28T18:05:42.594Z,100916.97
2022-11-28T18:08:10.397Z,100915.34
2022-11-28T18:10:37.907Z,100917.81
2022-11-28T18:13:05.994Z,100915.34
2022-11-28T18:15:35.531Z,100920.47
2022-11-28T18:18:04.429Z,100912.06
2022-11-28T18:20:32.144Z,100915.56
2022-11-28T18:23:03.929Z,100906.94
2022-11-28T18:25:31.396Z,100914.34
2022-11-28T18:27:59.034Z,100915.13
2022-11-28T18:30:26.519Z,100924.38
2022-11-28T18:32:53.967Z,100918.63
2022-11-28T18:35:21.503Z,100916.56
2022-11-28T18:37:48.986Z,100925.41
2022-11-28T18:40:17.819Z,100918.44
2022-11-28T18:42:45.254Z,100920.88
2022-11-28T18:45:13.447Z,100932.81
2022-11-28T18:47:40.910Z,100931.34
2022-11-28T18:50:09.514Z,100934.22
2022-11-28T18:52:37.074Z,100937.13
2022-11-28T18:55:04.743Z,100934.00
2022-11-28T18:57:34.326Z,100943.88
2022-11-28T19:00:03.498Z,100936.28
2022-11-28T19:02:31.206Z,100939.16
2022-11-28T19:04:58.758Z,100940.19
2022-11-28T19:07:26.372Z,100939.97
2022-11-28T19:09:53.855Z,100941.63
2022-11-28T19:12:21.346Z,100939.97
2022-11-28T19:14:51.790Z,100942.44
2022-11-28T19:17:19.460Z,100937.91
2022-11-28T19:19:47.994Z,100945.91
2022-11-28T19:22:15.452Z,100941.41
2022-11-28T19:24:42.918Z,100941.63
2022-11-28T19:27:14.228Z,100948.38
2022-11-28T19:29:42.656Z,100938.53
2022-11-28T19:32:12.484Z,100938.94
2022-11-28T19:34:39.920Z,100949.22
2022-11-28T19:37:07.411Z,100940.19
2022-11-28T19:39:34.926Z,100942.84
2022-11-28T19:42:02.392Z,100940.78
2022-11-28T19:44:30.494Z,100951.44
2022-11-28T19:46:57.931Z,100951.06
2022-11-28T19:49:27.115Z,100953.28
2022-11-28T19:51:55.324Z,100951.03
2022-11-28T19:54:22.907Z,100951.88
2022-11-28T19:56:50.855Z,100958.03
2022-11-28T19:59:19.179Z,100957.63
2022-11-28T20:01:49.555Z,100954.72
2022-11-28T20:04:17.240Z,100958.22
2022-11-28T20:06:46.048Z,100963.75
2022-11-28T20:09:14.214Z,100964.38
2022-11-28T20:11:43.388Z,100963.78
2022-11-28T20:14:13.357Z,100966.25
2022-11-28T20:16:41.118Z,100961.72
2022-11-28T20:19:09.357Z,100967.88
2022-11-28T20:21:36.802Z,100970.16
2022-11-28T20:24:08.129Z,100974.88
2022-11-28T20:26:38.126Z,100971.78
2022-11-28T20:29:05.773Z,100979.97
2022-11-28T20:31:35.756Z,100975.47
2022-11-28T20:34:04.035Z,100976.69
2022-11-28T20:36:32.898Z,100980.41
2022-11-28T20:39:00.734Z,100968.09
2022-11-28T20:41:29.863Z,100973.41
2022-11-28T20:43:59.346Z,100974.88
2022-11-28T20:46:30.017Z,100975.25
2022-11-28T20:48:58.439Z,100974.88
2022-11-28T20:51:27.222Z,100980.19
2022-11-28T20:53:55.483Z,100981.00
2022-11-28T20:56:24.617Z,100976.91
2022-11-28T20:58:53.719Z,100970.31
2022-11-28T21:01:23.741Z,100981.81
2022-11-28T21:03:52.193Z,100968.25
2022-11-28T21:06:20.471Z,100973.63
2022-11-28T21:08:48.385Z,100965.00
2022-11-28T21:11:36.380Z,100982.03
2022-11-28T21:14:07.235Z,100984.91
2022-11-28T21:16:35.259Z,100978.16
2022-11-28T21:19:04.893Z,100971.56
2022-11-28T21:21:33.687Z,100980.59
2022-11-28T21:24:02.958Z,100976.69
2022-11-28T21:26:35.050Z,100972.41
2022-11-28T21:29:09.055Z,100969.72
2022-11-28T21:31:38.848Z,100975.25
2022-11-28T21:34:06.311Z,100976.50
2022-11-28T21:36:33.762Z,100979.16
2022-11-28T21:39:02.054Z,100984.06
2022-11-28T21:41:30.897Z,100984.06
2022-11-28T21:43:58.982Z,100987.38
2022-11-28T21:46:28.502Z,100980.16
2022-11-28T21:48:57.670Z,100974.63
2022-11-28T21:51:28.269Z,100981.19
2022-11-28T21:53:57.212Z,100983.88
2022-11-28T21:56:24.878Z,100978.72
2022-11-28T21:58:52.538Z,100989.00
2022-11-28T22:01:21.434Z,100985.09
2022-11-28T22:03:50.562Z,100982.22
2022-11-28T22:06:19.294Z,100986.13
2022-11-28T22:08:48.441Z,100982.63
2022-11-28T22:11:16.432Z,100982.03
2022-11-28T22:13:45.663Z,100981.59
2022-11-28T22:16:16.701Z,100983.47
2022-11-28T22:18:44.392Z,100991.69
2022-11-28T22:21:49.804Z,100995.16
2022-11-28T22:24:05.396Z,100987.16
2022-11-28T22:26:34.032Z,100994.16
2022-11-28T22:29:03.814Z,100995.97
2022-11-28T22:31:34.426Z,100993.13
2022-11-28T22:34:02.026Z,100993.91
2022-11-28T22:36:31.920Z,100995.16
2022-11-28T22:38:59.773Z,100990.44
2022-11-28T22:41:33.603Z,100990.84
2022-11-28T22:44:03.389Z,100998.25
2022-11-28T22:46:31.421Z,101002.34
2022-11-28T22:49:02.593Z,100997.81
2022-11-28T22:51:33.965Z,100997.41
2022-11-28T22:54:02.922Z,100992.47
2022-11-28T22:56:31.845Z,100998.22
2022-11-28T22:58:59.728Z,101005.22
2022-11-28T23:01:29.486Z,100997.00
2022-11-28T23:03:57.111Z,101007.88
2022-11-28T23:06:26.701Z,101004.19
2022-11-28T23:08:55.564Z,101003.38
2022-11-28T23:11:24.677Z,101003.38
2022-11-28T23:13:52.817Z,101005.41
2022-11-28T23:16:21.712Z,101003.59
2022-11-28T23:18:51.533Z,101005.22
2022-11-28T23:21:20.147Z,101007.09
2022-11-28T23:23:48.422Z,101009.91
2022-11-28T23:26:18.843Z,101018.16
2022-11-28T23:28:46.544Z,101013.44
2022-11-28T23:31:16.026Z,101018.38
2022-11-28T23:33:44.052Z,101017.53
2022-11-28T23:36:15.844Z,101016.28
2022-11-28T23:38:43.741Z,101017.94
2022-11-28T23:41:11.754Z,101026.56
2022-11-28T23:43:40.774Z,101018.56
2022-11-28T23:46:09.524Z,101022.06
2022-11-28T23:48:37.530Z,101014.88
2022-11-28T23:51:06.175Z,101017.13
2022-11-28T23:53:33.767Z,101021.63
2022-11-28T23:56:03.755Z,101017.53
2022-11-28T23:58:31.271Z,101018.97
